sensor_id;sensor_type;location;lat;lon;timestamp;P1;durP1;ratioP1;P2;durP2;ratioP2
77733;SDS011;66902;41.720;44.796;2023-04-15T00:02:13;3.20;;;2.60;;
77733;SDS011;66902;41.720;44.796;2023-04-15T00:04:45;5.20;;;3.40;;
77733;SDS011;66902;41.720;44.796;2023-04-15T00:07:16;3.30;;;2.20;;
77733;SDS011;66902;41.720;44.796;2023-04-15T00:09:46;2.80;;;2.20;;
77733;SDS011;66902;41.720;44.796;2023-04-15T00:12:17;3.60;;;2.60;;
77733;SDS011;66902;41.720;44.796;2023-04-15T00:14:48;5.10;;;2.60;;
77733;SDS011;66902;41.720;44.796;2023-04-15T00:17:19;4.90;;;2.70;;
77733;SDS011;66902;41.720;44.796;2023-04-15T00:19:49;3.50;;;2.20;;
77733;SDS011;66902;41.720;44.796;2023-04-15T00:22:20;4.60;;;2.60;;
77733;SDS011;66902;41.720;44.796;2023-04-15T00:24:51;3.50;;;2.60;;
77733;SDS011;66902;41.720;44.796;2023-04-15T00:27:22;3.20;;;2.40;;
77733;SDS011;66902;41.720;44.796;2023-04-15T00:29:53;2.10;;;1.90;;
77733;SDS011;66902;41.720;44.796;2023-04-15T00:32:24;2.50;;;1.90;;
77733;SDS011;66902;41.720;44.796;2023-04-15T00:34:55;4.10;;;2.30;;
77733;SDS011;66902;41.720;44.796;2023-04-15T00:37:26;4.70;;;1.90;;
77733;SDS011;66902;41.720;44.796;2023-04-15T00:39:56;5.10;;;2.70;;
77733;SDS011;66902;41.720;44.796;2023-04-15T00:42:27;7.70;;;2.30;;
77733;SDS011;66902;41.720;44.796;2023-04-15T00:44:58;6.60;;;3.00;;
77733;SDS011;66902;41.720;44.796;2023-04-15T00:47:30;3.50;;;2.20;;
77733;SDS011;66902;41.720;44.796;2023-04-15T00:50:01;2.80;;;2.20;;
77733;SDS011;66902;41.720;44.796;2023-04-15T00:52:32;4.10;;;2.90;;
77733;SDS011;66902;41.720;44.796;2023-04-15T00:55:03;5.50;;;3.10;;
77733;SDS011;66902;41.720;44.796;2023-04-15T00:57:35;4.00;;;3.10;;
77733;SDS011;66902;41.720;44.796;2023-04-15T01:00:07;4.70;;;3.50;;
77733;SDS011;66902;41.720;44.796;2023-04-15T01:02:39;5.20;;;2.80;;
77733;SDS011;66902;41.720;44.796;2023-04-15T01:05:10;3.10;;;2.80;;
77733;SDS011;66902;41.720;44.796;2023-04-15T01:07:41;4.90;;;3.00;;
77733;SDS011;66902;41.720;44.796;2023-04-15T01:10:11;3.90;;;2.50;;
77733;SDS011;66902;41.720;44.796;2023-04-15T01:12:41;4.50;;;3.80;;
77733;SDS011;66902;41.720;44.796;2023-04-15T01:15:13;8.00;;;3.20;;
77733;SDS011;66902;41.720;44.796;2023-04-15T01:17:43;3.40;;;3.00;;
77733;SDS011;66902;41.720;44.796;2023-04-15T01:20:14;6.50;;;3.50;;
77733;SDS011;66902;41.720;44.796;2023-04-15T01:22:45;3.30;;;2.60;;
77733;SDS011;66902;41.720;44.796;2023-04-15T01:25:17;3.10;;;2.70;;
77733;SDS011;66902;41.720;44.796;2023-04-15T01:27:48;6.80;;;3.30;;
77733;SDS011;66902;41.720;44.796;2023-04-15T01:30:20;4.30;;;3.30;;
77733;SDS011;66902;41.720;44.796;2023-04-15T01:32:50;4.40;;;3.90;;
77733;SDS011;66902;41.720;44.796;2023-04-15T01:35:20;4.30;;;3.50;;
77733;SDS011;66902;41.720;44.796;2023-04-15T01:37:51;5.80;;;3.60;;
77733;SDS011;66902;41.720;44.796;2023-04-15T01:40:23;3.60;;;3.00;;
77733;SDS011;66902;41.720;44.796;2023-04-15T01:42:53;6.20;;;3.20;;
77733;SDS011;66902;41.720;44.796;2023-04-15T01:45:25;3.70;;;3.00;;
77733;SDS011;66902;41.720;44.796;2023-04-15T01:47:55;7.10;;;2.90;;
77733;SDS011;66902;41.720;44.796;2023-04-15T01:50:26;3.50;;;2.80;;
77733;SDS011;66902;41.720;44.796;2023-04-15T01:52:57;3.60;;;2.80;;
77733;SDS011;66902;41.720;44.796;2023-04-15T01:55:27;4.80;;;2.60;;
77733;SDS011;66902;41.720;44.796;2023-04-15T01:58:01;2.80;;;2.40;;
77733;SDS011;66902;41.720;44.796;2023-04-15T02:00:32;7.80;;;3.80;;
77733;SDS011;66902;41.720;44.796;2023-04-15T02:03:02;6.70;;;3.40;;
77733;SDS011;66902;41.720;44.796;2023-04-15T02:05:34;6.00;;;4.40;;
77733;SDS011;66902;41.720;44.796;2023-04-15T02:08:05;3.70;;;2.90;;
77733;SDS011;66902;41.720;44.796;2023-04-15T02:10:36;7.30;;;4.10;;
77733;SDS011;66902;41.720;44.796;2023-04-15T02:13:06;3.20;;;2.50;;
77733;SDS011;66902;41.720;44.796;2023-04-15T02:15:38;3.60;;;3.00;;
77733;SDS011;66902;41.720;44.796;2023-04-15T02:18:08;4.60;;;3.30;;
77733;SDS011;66902;41.720;44.796;2023-04-15T02:20:39;3.70;;;3.30;;
77733;SDS011;66902;41.720;44.796;2023-04-15T02:23:11;5.00;;;3.40;;
77733;SDS011;66902;41.720;44.796;2023-04-15T02:25:45;5.70;;;4.00;;
77733;SDS011;66902;41.720;44.796;2023-04-15T02:28:21;4.80;;;4.00;;
77733;SDS011;66902;41.720;44.796;2023-04-15T02:30:52;8.20;;;6.00;;
77733;SDS011;66902;41.720;44.796;2023-04-15T02:33:24;6.20;;;5.60;;
77733;SDS011;66902;41.720;44.796;2023-04-15T02:35:55;5.00;;;4.00;;
77733;SDS011;66902;41.720;44.796;2023-04-15T02:38:26;3.00;;;2.80;;
77733;SDS011;66902;41.720;44.796;2023-04-15T02:40:58;4.40;;;3.20;;
77733;SDS011;66902;41.720;44.796;2023-04-15T02:43:28;3.60;;;2.90;;
77733;SDS011;66902;41.720;44.796;2023-04-15T02:45:58;5.70;;;2.60;;
77733;SDS011;66902;41.720;44.796;2023-04-15T02:48:30;7.30;;;3.30;;
77733;SDS011;66902;41.720;44.796;2023-04-15T02:51:11;3.80;;;3.00;;
77733;SDS011;66902;41.720;44.796;2023-04-15T02:53:42;3.00;;;2.60;;
77733;SDS011;66902;41.720;44.796;2023-04-15T02:56:14;4.40;;;3.50;;
77733;SDS011;66902;41.720;44.796;2023-04-15T02:58:44;3.50;;;2.80;;
77733;SDS011;66902;41.720;44.796;2023-04-15T03:01:17;4.10;;;2.50;;
77733;SDS011;66902;41.720;44.796;2023-04-15T03:03:48;3.30;;;2.50;;
77733;SDS011;66902;41.720;44.796;2023-04-15T03:06:19;2.60;;;2.20;;
77733;SDS011;66902;41.720;44.796;2023-04-15T03:08:50;2.50;;;2.20;;
77733;SDS011;66902;41.720;44.796;2023-04-15T03:11:20;2.90;;;2.40;;
77733;SDS011;66902;41.720;44.796;2023-04-15T03:13:50;4.40;;;2.40;;
77733;SDS011;66902;41.720;44.796;2023-04-15T03:16:20;4.20;;;2.40;;
77733;SDS011;66902;41.720;44.796;2023-04-15T03:18:51;3.50;;;2.80;;
77733;SDS011;66902;41.720;44.796;2023-04-15T03:21:21;3.50;;;3.10;;
77733;SDS011;66902;41.720;44.796;2023-04-15T03:23:51;4.30;;;3.50;;
77733;SDS011;66902;41.720;44.796;2023-04-15T03:26:26;9.30;;;2.60;;
77733;SDS011;66902;41.720;44.796;2023-04-15T03:28:56;8.40;;;2.70;;
77733;SDS011;66902;41.720;44.796;2023-04-15T03:31:27;4.30;;;3.30;;
77733;SDS011;66902;41.720;44.796;2023-04-15T03:33:59;10.40;;;2.80;;
77733;SDS011;66902;41.720;44.796;2023-04-15T03:36:30;8.90;;;3.30;;
77733;SDS011;66902;41.720;44.796;2023-04-15T03:39:03;3.60;;;3.10;;
77733;SDS011;66902;41.720;44.796;2023-04-15T03:41:34;4.70;;;2.30;;
77733;SDS011;66902;41.720;44.796;2023-04-15T03:44:04;6.80;;;2.50;;
77733;SDS011;66902;41.720;44.796;2023-04-15T03:46:35;4.50;;;2.60;;
77733;SDS011;66902;41.720;44.796;2023-04-15T03:49:06;4.70;;;2.00;;
77733;SDS011;66902;41.720;44.796;2023-04-15T03:51:38;3.20;;;2.50;;
77733;SDS011;66902;41.720;44.796;2023-04-15T03:54:08;4.50;;;2.40;;
77733;SDS011;66902;41.720;44.796;2023-04-15T03:56:41;2.10;;;1.80;;
77733;SDS011;66902;41.720;44.796;2023-04-15T03:59:11;6.60;;;1.60;;
77733;SDS011;66902;41.720;44.796;2023-04-15T04:01:42;7.30;;;2.80;;
77733;SDS011;66902;41.720;44.796;2023-04-15T04:04:13;1.60;;;1.20;;
77733;SDS011;66902;41.720;44.796;2023-04-15T04:06:44;2.10;;;1.60;;
77733;SDS011;66902;41.720;44.796;2023-04-15T04:09:15;2.20;;;1.70;;
77733;SDS011;66902;41.720;44.796;2023-04-15T04:11:47;3.30;;;1.20;;
77733;SDS011;66902;41.720;44.796;2023-04-15T04:14:17;2.60;;;1.40;;
77733;SDS011;66902;41.720;44.796;2023-04-15T04:16:50;2.90;;;2.00;;
77733;SDS011;66902;41.720;44.796;2023-04-15T04:19:20;3.50;;;1.70;;
77733;SDS011;66902;41.720;44.796;2023-04-15T04:21:51;3.70;;;1.90;;
77733;SDS011;66902;41.720;44.796;2023-04-15T04:24:22;2.30;;;1.70;;
77733;SDS011;66902;41.720;44.796;2023-04-15T04:26:52;1.70;;;1.60;;
77733;SDS011;66902;41.720;44.796;2023-04-15T04:29:25;2.60;;;1.40;;
77733;SDS011;66902;41.720;44.796;2023-04-15T04:31:55;2.40;;;1.30;;
77733;SDS011;66902;41.720;44.796;2023-04-15T04:34:26;3.30;;;1.30;;
77733;SDS011;66902;41.720;44.796;2023-04-15T04:37:08;4.10;;;1.50;;
77733;SDS011;66902;41.720;44.796;2023-04-15T04:39:39;3.20;;;1.20;;
77733;SDS011;66902;41.720;44.796;2023-04-15T04:42:09;3.30;;;1.30;;
77733;SDS011;66902;41.720;44.796;2023-04-15T04:44:40;1.20;;;1.00;;
77733;SDS011;66902;41.720;44.796;2023-04-15T04:47:10;3.40;;;1.10;;
77733;SDS011;66902;41.720;44.796;2023-04-15T04:49:41;3.50;;;1.10;;
77733;SDS011;66902;41.720;44.796;2023-04-15T04:52:12;3.70;;;1.00;;
77733;SDS011;66902;41.720;44.796;2023-04-15T04:54:43;1.30;;;1.00;;
77733;SDS011;66902;41.720;44.796;2023-04-15T04:57:14;3.20;;;1.50;;
77733;SDS011;66902;41.720;44.796;2023-04-15T04:59:46;1.80;;;1.10;;
77733;SDS011;66902;41.720;44.796;2023-04-15T05:02:16;2.30;;;1.60;;
77733;SDS011;66902;41.720;44.796;2023-04-15T05:04:54;3.10;;;1.10;;
77733;SDS011;66902;41.720;44.796;2023-04-15T05:07:26;2.30;;;1.40;;
77733;SDS011;66902;41.720;44.796;2023-04-15T05:09:56;1.80;;;0.90;;
77733;SDS011;66902;41.720;44.796;2023-04-15T05:12:26;2.40;;;0.90;;
77733;SDS011;66902;41.720;44.796;2023-04-15T05:14:57;1.50;;;0.80;;
77733;SDS011;66902;41.720;44.796;2023-04-15T05:17:28;1.50;;;1.30;;
77733;SDS011;66902;41.720;44.796;2023-04-15T05:20:00;1.90;;;0.80;;
77733;SDS011;66902;41.720;44.796;2023-04-15T05:22:32;1.70;;;0.80;;
77733;SDS011;66902;41.720;44.796;2023-04-15T05:25:03;1.30;;;0.70;;
77733;SDS011;66902;41.720;44.796;2023-04-15T05:27:34;1.10;;;0.70;;
77733;SDS011;66902;41.720;44.796;2023-04-15T05:30:08;1.80;;;0.80;;
77733;SDS011;66902;41.720;44.796;2023-04-15T05:32:41;0.90;;;0.60;;
77733;SDS011;66902;41.720;44.796;2023-04-15T05:35:13;1.80;;;1.00;;
77733;SDS011;66902;41.720;44.796;2023-04-15T05:37:45;1.20;;;1.00;;
77733;SDS011;66902;41.720;44.796;2023-04-15T05:40:17;1.20;;;0.70;;
77733;SDS011;66902;41.720;44.796;2023-04-15T05:42:49;1.40;;;0.80;;
77733;SDS011;66902;41.720;44.796;2023-04-15T05:45:20;0.80;;;0.60;;
77733;SDS011;66902;41.720;44.796;2023-04-15T05:47:50;3.30;;;1.20;;
77733;SDS011;66902;41.720;44.796;2023-04-15T05:50:21;1.50;;;0.70;;
77733;SDS011;66902;41.720;44.796;2023-04-15T05:52:56;1.30;;;0.60;;
77733;SDS011;66902;41.720;44.796;2023-04-15T05:55:28;1.50;;;0.80;;
77733;SDS011;66902;41.720;44.796;2023-04-15T05:58:04;1.80;;;0.80;;
77733;SDS011;66902;41.720;44.796;2023-04-15T06:00:34;5.20;;;2.50;;
77733;SDS011;66902;41.720;44.796;2023-04-15T06:03:08;0.70;;;0.60;;
77733;SDS011;66902;41.720;44.796;2023-04-15T06:05:39;4.90;;;1.20;;
77733;SDS011;66902;41.720;44.796;2023-04-15T06:08:12;1.40;;;0.80;;
77733;SDS011;66902;41.720;44.796;2023-04-15T06:10:45;0.90;;;0.60;;
77733;SDS011;66902;41.720;44.796;2023-04-15T06:13:20;2.00;;;1.30;;
77733;SDS011;66902;41.720;44.796;2023-04-15T06:15:52;1.40;;;0.60;;
77733;SDS011;66902;41.720;44.796;2023-04-15T06:18:23;0.70;;;0.60;;
77733;SDS011;66902;41.720;44.796;2023-04-15T06:20:55;1.50;;;0.90;;
77733;SDS011;66902;41.720;44.796;2023-04-15T06:23:31;1.10;;;0.60;;
77733;SDS011;66902;41.720;44.796;2023-04-15T06:26:03;1.30;;;0.80;;
77733;SDS011;66902;41.720;44.796;2023-04-15T06:28:34;0.90;;;0.60;;
77733;SDS011;66902;41.720;44.796;2023-04-15T06:31:07;1.80;;;0.70;;
77733;SDS011;66902;41.720;44.796;2023-04-15T06:33:38;1.50;;;0.60;;
77733;SDS011;66902;41.720;44.796;2023-04-15T06:36:08;1.00;;;0.70;;
77733;SDS011;66902;41.720;44.796;2023-04-15T06:38:39;2.30;;;0.70;;
77733;SDS011;66902;41.720;44.796;2023-04-15T06:41:09;1.80;;;0.70;;
77733;SDS011;66902;41.720;44.796;2023-04-15T06:43:40;2.00;;;0.40;;
77733;SDS011;66902;41.720;44.796;2023-04-15T06:46:12;3.20;;;0.60;;
77733;SDS011;66902;41.720;44.796;2023-04-15T06:48:44;0.80;;;0.40;;
77733;SDS011;66902;41.720;44.796;2023-04-15T06:51:14;1.80;;;0.60;;
77733;SDS011;66902;41.720;44.796;2023-04-15T06:53:45;1.30;;;0.40;;
77733;SDS011;66902;41.720;44.796;2023-04-15T06:56:16;1.30;;;0.50;;
77733;SDS011;66902;41.720;44.796;2023-04-15T06:58:46;1.20;;;0.40;;
77733;SDS011;66902;41.720;44.796;2023-04-15T07:01:17;2.70;;;0.60;;
77733;SDS011;66902;41.720;44.796;2023-04-15T07:03:51;1.20;;;0.50;;
77733;SDS011;66902;41.720;44.796;2023-04-15T07:06:22;3.90;;;0.60;;
77733;SDS011;66902;41.720;44.796;2023-04-15T07:08:54;3.20;;;0.80;;
77733;SDS011;66902;41.720;44.796;2023-04-15T07:11:26;0.80;;;0.60;;
77733;SDS011;66902;41.720;44.796;2023-04-15T07:14:11;3.00;;;0.50;;
77733;SDS011;66902;41.720;44.796;2023-04-15T07:16:42;0.70;;;0.40;;
77733;SDS011;66902;41.720;44.796;2023-04-15T07:19:12;0.90;;;0.40;;
77733;SDS011;66902;41.720;44.796;2023-04-15T07:21:43;2.20;;;0.50;;
77733;SDS011;66902;41.720;44.796;2023-04-15T07:24:14;2.70;;;0.70;;
77733;SDS011;66902;41.720;44.796;2023-04-15T07:26:46;0.60;;;0.60;;
77733;SDS011;66902;41.720;44.796;2023-04-15T07:29:17;1.90;;;0.70;;
77733;SDS011;66902;41.720;44.796;2023-04-15T07:31:48;3.80;;;1.10;;
77733;SDS011;66902;41.720;44.796;2023-04-15T07:34:19;3.00;;;0.50;;
77733;SDS011;66902;41.720;44.796;2023-04-15T07:36:50;0.50;;;0.30;;
77733;SDS011;66902;41.720;44.796;2023-04-15T07:39:21;1.00;;;0.70;;
77733;SDS011;66902;41.720;44.796;2023-04-15T07:41:54;2.00;;;0.80;;
77733;SDS011;66902;41.720;44.796;2023-04-15T07:44:26;3.20;;;0.70;;
77733;SDS011;66902;41.720;44.796;2023-04-15T07:46:57;1.00;;;0.70;;
77733;SDS011;66902;41.720;44.796;2023-04-15T07:49:29;1.20;;;0.70;;
77733;SDS011;66902;41.720;44.796;2023-04-15T07:52:00;1.50;;;0.60;;
77733;SDS011;66902;41.720;44.796;2023-04-15T07:54:32;1.90;;;0.50;;
77733;SDS011;66902;41.720;44.796;2023-04-15T07:57:03;2.10;;;0.80;;
77733;SDS011;66902;41.720;44.796;2023-04-15T07:59:34;2.40;;;0.70;;
77733;SDS011;66902;41.720;44.796;2023-04-15T08:02:07;1.00;;;0.90;;
77733;SDS011;66902;41.720;44.796;2023-04-15T08:04:40;2.20;;;1.00;;
77733;SDS011;66902;41.720;44.796;2023-04-15T08:07:14;1.50;;;0.70;;
77733;SDS011;66902;41.720;44.796;2023-04-15T08:09:45;1.10;;;0.60;;
77733;SDS011;66902;41.720;44.796;2023-04-15T08:12:15;4.50;;;1.70;;
77733;SDS011;66902;41.720;44.796;2023-04-15T08:14:46;1.90;;;1.00;;
77733;SDS011;66902;41.720;44.796;2023-04-15T08:17:18;2.20;;;1.10;;
77733;SDS011;66902;41.720;44.796;2023-04-15T08:19:49;3.50;;;1.90;;
77733;SDS011;66902;41.720;44.796;2023-04-15T08:22:21;2.30;;;1.50;;
77733;SDS011;66902;41.720;44.796;2023-04-15T08:24:54;2.30;;;1.80;;
77733;SDS011;66902;41.720;44.796;2023-04-15T08:27:26;1.70;;;0.70;;
77733;SDS011;66902;41.720;44.796;2023-04-15T08:29:57;1.40;;;1.00;;
77733;SDS011;66902;41.720;44.796;2023-04-15T08:32:33;1.30;;;1.00;;
77733;SDS011;66902;41.720;44.796;2023-04-15T08:35:04;2.50;;;1.30;;
77733;SDS011;66902;41.720;44.796;2023-04-15T08:37:40;4.50;;;1.00;;
77733;SDS011;66902;41.720;44.796;2023-04-15T08:40:24;2.30;;;0.90;;
77733;SDS011;66902;41.720;44.796;2023-04-15T08:43:02;2.00;;;1.30;;
77733;SDS011;66902;41.720;44.796;2023-04-15T08:45:37;1.60;;;1.30;;
77733;SDS011;66902;41.720;44.796;2023-04-15T08:48:08;2.00;;;1.40;;
77733;SDS011;66902;41.720;44.796;2023-04-15T08:50:39;3.50;;;1.40;;
77733;SDS011;66902;41.720;44.796;2023-04-15T08:53:10;2.80;;;1.60;;
77733;SDS011;66902;41.720;44.796;2023-04-15T08:55:42;2.40;;;1.20;;
77733;SDS011;66902;41.720;44.796;2023-04-15T08:58:16;2.50;;;1.50;;
77733;SDS011;66902;41.720;44.796;2023-04-15T09:00:48;1.90;;;1.30;;
77733;SDS011;66902;41.720;44.796;2023-04-15T09:03:27;1.70;;;1.60;;
77733;SDS011;66902;41.720;44.796;2023-04-15T09:06:00;2.70;;;1.70;;
77733;SDS011;66902;41.720;44.796;2023-04-15T09:08:36;2.30;;;1.40;;
77733;SDS011;66902;41.720;44.796;2023-04-15T09:11:12;3.40;;;1.80;;
77733;SDS011;66902;41.720;44.796;2023-04-15T09:13:50;5.70;;;3.50;;
77733;SDS011;66902;41.720;44.796;2023-04-15T09:16:21;4.40;;;2.10;;
77733;SDS011;66902;41.720;44.796;2023-04-15T09:18:52;7.40;;;1.80;;
77733;SDS011;66902;41.720;44.796;2023-04-15T09:21:25;2.50;;;1.20;;
77733;SDS011;66902;41.720;44.796;2023-04-15T09:24:05;9.20;;;2.50;;
77733;SDS011;66902;41.720;44.796;2023-04-15T09:26:40;1.20;;;0.90;;
77733;SDS011;66902;41.720;44.796;2023-04-15T09:29:14;2.70;;;1.50;;
77733;SDS011;66902;41.720;44.796;2023-04-15T09:31:46;3.60;;;1.80;;
77733;SDS011;66902;41.720;44.796;2023-04-15T09:34:17;1.60;;;1.10;;
77733;SDS011;66902;41.720;44.796;2023-04-15T09:36:52;3.40;;;1.40;;
77733;SDS011;66902;41.720;44.796;2023-04-15T09:42:06;3.20;;;1.50;;
77733;SDS011;66902;41.720;44.796;2023-04-15T09:44:37;2.20;;;1.50;;
77733;SDS011;66902;41.720;44.796;2023-04-15T09:47:24;2.00;;;1.00;;
77733;SDS011;66902;41.720;44.796;2023-04-15T09:49:57;1.60;;;0.90;;
77733;SDS011;66902;41.720;44.796;2023-04-15T09:52:28;1.80;;;1.20;;
77733;SDS011;66902;41.720;44.796;2023-04-15T09:55:00;4.50;;;1.40;;
77733;SDS011;66902;41.720;44.796;2023-04-15T09:57:37;4.90;;;1.70;;
77733;SDS011;66902;41.720;44.796;2023-04-15T10:00:09;4.30;;;1.10;;
77733;SDS011;66902;41.720;44.796;2023-04-15T10:02:40;3.30;;;1.60;;
77733;SDS011;66902;41.720;44.796;2023-04-15T10:05:14;2.20;;;1.00;;
77733;SDS011;66902;41.720;44.796;2023-04-15T10:07:45;3.10;;;1.40;;
77733;SDS011;66902;41.720;44.796;2023-04-15T10:10:15;2.90;;;1.60;;
77733;SDS011;66902;41.720;44.796;2023-04-15T10:12:48;1.90;;;1.20;;
77733;SDS011;66902;41.720;44.796;2023-04-15T10:15:21;2.40;;;1.80;;
77733;SDS011;66902;41.720;44.796;2023-04-15T10:17:53;2.70;;;1.00;;
77733;SDS011;66902;41.720;44.796;2023-04-15T10:20:25;1.80;;;1.10;;
77733;SDS011;66902;41.720;44.796;2023-04-15T10:22:55;2.00;;;1.00;;
77733;SDS011;66902;41.720;44.796;2023-04-15T10:25:27;2.10;;;0.80;;
77733;SDS011;66902;41.720;44.796;2023-04-15T10:27:57;1.40;;;0.90;;
77733;SDS011;66902;41.720;44.796;2023-04-15T10:30:29;3.30;;;1.00;;
77733;SDS011;66902;41.720;44.796;2023-04-15T10:33:03;3.40;;;0.90;;
77733;SDS011;66902;41.720;44.796;2023-04-15T10:35:35;2.90;;;1.10;;
77733;SDS011;66902;41.720;44.796;2023-04-15T10:41:13;1.90;;;1.40;;
77733;SDS011;66902;41.720;44.796;2023-04-15T10:43:48;1.70;;;0.90;;
77733;SDS011;66902;41.720;44.796;2023-04-15T10:46:23;0.70;;;0.70;;
77733;SDS011;66902;41.720;44.796;2023-04-15T10:49:08;4.40;;;1.30;;
77733;SDS011;66902;41.720;44.796;2023-04-15T10:51:40;2.70;;;1.40;;
77733;SDS011;66902;41.720;44.796;2023-04-15T10:54:13;2.70;;;1.30;;
77733;SDS011;66902;41.720;44.796;2023-04-15T10:56:47;1.40;;;1.00;;
77733;SDS011;66902;41.720;44.796;2023-04-15T10:59:20;2.50;;;1.70;;
77733;SDS011;66902;41.720;44.796;2023-04-15T11:01:52;2.60;;;1.30;;
77733;SDS011;66902;41.720;44.796;2023-04-15T11:07:35;1.70;;;1.30;;
77733;SDS011;66902;41.720;44.796;2023-04-15T11:13:21;5.20;;;1.20;;
77733;SDS011;66902;41.720;44.796;2023-04-15T11:15:59;6.60;;;1.70;;
77733;SDS011;66902;41.720;44.796;2023-04-15T11:18:31;1.20;;;0.70;;
77733;SDS011;66902;41.720;44.796;2023-04-15T11:21:05;2.10;;;1.70;;
77733;SDS011;66902;41.720;44.796;2023-04-15T11:23:39;1.20;;;0.80;;
77733;SDS011;66902;41.720;44.796;2023-04-15T11:26:19;1.70;;;1.00;;
77733;SDS011;66902;41.720;44.796;2023-04-15T11:28:56;1.60;;;0.70;;
77733;SDS011;66902;41.720;44.796;2023-04-15T11:31:33;2.70;;;1.40;;
77733;SDS011;66902;41.720;44.796;2023-04-15T11:34:04;2.50;;;1.40;;
77733;SDS011;66902;41.720;44.796;2023-04-15T11:36:34;3.00;;;1.50;;
77733;SDS011;66902;41.720;44.796;2023-04-15T11:39:05;3.70;;;1.50;;
77733;SDS011;66902;41.720;44.796;2023-04-15T11:41:36;6.20;;;0.80;;
77733;SDS011;66902;41.720;44.796;2023-04-15T11:44:15;2.10;;;1.90;;
77733;SDS011;66902;41.720;44.796;2023-04-15T11:46:47;4.60;;;1.30;;
77733;SDS011;66902;41.720;44.796;2023-04-15T11:49:26;1.60;;;1.20;;
77733;SDS011;66902;41.720;44.796;2023-04-15T11:51:58;9.40;;;2.60;;
77733;SDS011;66902;41.720;44.796;2023-04-15T11:54:29;1.70;;;1.50;;
77733;SDS011;66902;41.720;44.796;2023-04-15T11:56:59;2.80;;;2.10;;
77733;SDS011;66902;41.720;44.796;2023-04-15T11:59:41;2.10;;;1.70;;
77733;SDS011;66902;41.720;44.796;2023-04-15T12:02:16;4.90;;;1.00;;
77733;SDS011;66902;41.720;44.796;2023-04-15T12:04:47;2.90;;;1.30;;
77733;SDS011;66902;41.720;44.796;2023-04-15T12:07:18;1.50;;;1.30;;
77733;SDS011;66902;41.720;44.796;2023-04-15T12:09:54;4.80;;;2.00;;
77733;SDS011;66902;41.720;44.796;2023-04-15T12:12:26;2.30;;;1.10;;
77733;SDS011;66902;41.720;44.796;2023-04-15T12:14:58;1.60;;;0.90;;
77733;SDS011;66902;41.720;44.796;2023-04-15T12:17:28;4.50;;;0.90;;
77733;SDS011;66902;41.720;44.796;2023-04-15T12:20:21;2.70;;;1.00;;
77733;SDS011;66902;41.720;44.796;2023-04-15T12:22:54;2.20;;;1.40;;
77733;SDS011;66902;41.720;44.796;2023-04-15T12:25:35;1.40;;;1.30;;
77733;SDS011;66902;41.720;44.796;2023-04-15T12:28:10;1.30;;;1.00;;
77733;SDS011;66902;41.720;44.796;2023-04-15T12:30:48;4.60;;;2.10;;
77733;SDS011;66902;41.720;44.796;2023-04-15T12:33:19;1.90;;;1.00;;
77733;SDS011;66902;41.720;44.796;2023-04-15T12:35:53;5.70;;;1.70;;
77733;SDS011;66902;41.720;44.796;2023-04-15T12:38:24;2.70;;;1.00;;
77733;SDS011;66902;41.720;44.796;2023-04-15T12:40:56;1.70;;;1.10;;
77733;SDS011;66902;41.720;44.796;2023-04-15T12:43:26;2.10;;;1.10;;
77733;SDS011;66902;41.720;44.796;2023-04-15T12:45:57;2.80;;;2.60;;
77733;SDS011;66902;41.720;44.796;2023-04-15T12:48:28;8.50;;;2.20;;
77733;SDS011;66902;41.720;44.796;2023-04-15T12:51:00;1.90;;;1.20;;
77733;SDS011;66902;41.720;44.796;2023-04-15T12:53:33;3.40;;;1.80;;
77733;SDS011;66902;41.720;44.796;2023-04-15T12:56:05;4.30;;;1.30;;
77733;SDS011;66902;41.720;44.796;2023-04-15T12:58:36;5.30;;;1.80;;
77733;SDS011;66902;41.720;44.796;2023-04-15T13:01:07;1.10;;;0.80;;
77733;SDS011;66902;41.720;44.796;2023-04-15T13:03:38;3.70;;;1.20;;
77733;SDS011;66902;41.720;44.796;2023-04-15T13:06:09;1.00;;;0.70;;
77733;SDS011;66902;41.720;44.796;2023-04-15T13:08:40;2.00;;;1.00;;
77733;SDS011;66902;41.720;44.796;2023-04-15T13:11:27;2.90;;;2.00;;
77733;SDS011;66902;41.720;44.796;2023-04-15T13:14:02;2.50;;;1.10;;
77733;SDS011;66902;41.720;44.796;2023-04-15T13:16:34;2.80;;;1.50;;
77733;SDS011;66902;41.720;44.796;2023-04-15T13:19:05;1.00;;;0.80;;
77733;SDS011;66902;41.720;44.796;2023-04-15T13:21:36;3.20;;;2.10;;
77733;SDS011;66902;41.720;44.796;2023-04-15T13:24:06;2.10;;;1.30;;
77733;SDS011;66902;41.720;44.796;2023-04-15T13:26:37;2.00;;;1.40;;
77733;SDS011;66902;41.720;44.796;2023-04-15T13:29:07;4.10;;;1.70;;
77733;SDS011;66902;41.720;44.796;2023-04-15T13:31:39;2.30;;;1.40;;
77733;SDS011;66902;41.720;44.796;2023-04-15T13:34:10;2.00;;;1.30;;
77733;SDS011;66902;41.720;44.796;2023-04-15T13:36:42;2.10;;;1.40;;
77733;SDS011;66902;41.720;44.796;2023-04-15T13:39:13;3.90;;;1.20;;
77733;SDS011;66902;41.720;44.796;2023-04-15T13:41:45;2.10;;;1.30;;
77733;SDS011;66902;41.720;44.796;2023-04-15T13:44:19;3.60;;;1.20;;
77733;SDS011;66902;41.720;44.796;2023-04-15T13:46:50;1.70;;;0.90;;
77733;SDS011;66902;41.720;44.796;2023-04-15T13:49:22;2.00;;;0.90;;
77733;SDS011;66902;41.720;44.796;2023-04-15T13:51:54;3.70;;;2.40;;
77733;SDS011;66902;41.720;44.796;2023-04-15T13:54:27;2.80;;;1.00;;
77733;SDS011;66902;41.720;44.796;2023-04-15T13:57:05;1.50;;;1.20;;
77733;SDS011;66902;41.720;44.796;2023-04-15T13:59:36;2.40;;;1.60;;
77733;SDS011;66902;41.720;44.796;2023-04-15T14:02:07;2.50;;;1.40;;
77733;SDS011;66902;41.720;44.796;2023-04-15T14:04:40;2.70;;;1.70;;
77733;SDS011;66902;41.720;44.796;2023-04-15T14:07:11;2.00;;;1.10;;
77733;SDS011;66902;41.720;44.796;2023-04-15T14:09:42;2.10;;;1.20;;
77733;SDS011;66902;41.720;44.796;2023-04-15T14:12:13;2.20;;;1.30;;
77733;SDS011;66902;41.720;44.796;2023-04-15T14:14:44;2.40;;;1.40;;
77733;SDS011;66902;41.720;44.796;2023-04-15T14:17:14;2.80;;;1.40;;
77733;SDS011;66902;41.720;44.796;2023-04-15T14:19:45;1.60;;;1.30;;
77733;SDS011;66902;41.720;44.796;2023-04-15T14:22:17;2.70;;;2.00;;
77733;SDS011;66902;41.720;44.796;2023-04-15T14:24:52;2.00;;;1.20;;
77733;SDS011;66902;41.720;44.796;2023-04-15T14:27:25;2.80;;;1.30;;
77733;SDS011;66902;41.720;44.796;2023-04-15T14:29:56;2.20;;;1.40;;
77733;SDS011;66902;41.720;44.796;2023-04-15T14:32:27;1.40;;;1.10;;
77733;SDS011;66902;41.720;44.796;2023-04-15T14:34:57;2.80;;;1.30;;
77733;SDS011;66902;41.720;44.796;2023-04-15T14:37:28;2.50;;;0.90;;
77733;SDS011;66902;41.720;44.796;2023-04-15T14:39:58;1.60;;;1.00;;
77733;SDS011;66902;41.720;44.796;2023-04-15T14:42:29;6.70;;;1.70;;
77733;SDS011;66902;41.720;44.796;2023-04-15T14:45:00;2.60;;;1.80;;
77733;SDS011;66902;41.720;44.796;2023-04-15T14:47:30;5.50;;;3.60;;
77733;SDS011;66902;41.720;44.796;2023-04-15T14:50:01;1.50;;;0.90;;
77733;SDS011;66902;41.720;44.796;2023-04-15T14:52:32;2.40;;;1.10;;
77733;SDS011;66902;41.720;44.796;2023-04-15T14:55:07;3.60;;;2.40;;
77733;SDS011;66902;41.720;44.796;2023-04-15T14:57:38;3.20;;;1.20;;
77733;SDS011;66902;41.720;44.796;2023-04-15T15:00:11;4.50;;;1.70;;
77733;SDS011;66902;41.720;44.796;2023-04-15T15:02:43;1.90;;;1.70;;
77733;SDS011;66902;41.720;44.796;2023-04-15T15:05:31;5.10;;;2.50;;
77733;SDS011;66902;41.720;44.796;2023-04-15T15:08:02;4.60;;;2.40;;
77733;SDS011;66902;41.720;44.796;2023-04-15T15:10:33;6.90;;;1.50;;
77733;SDS011;66902;41.720;44.796;2023-04-15T15:13:17;3.40;;;1.80;;
77733;SDS011;66902;41.720;44.796;2023-04-15T15:15:54;2.20;;;1.90;;